sensor_id;sensor_type;location;lat;lon;timestamp;P1;durP1;ratioP1;P2;durP2;ratioP2
8113;SDS011;4099;52.684;9.918;2023-04-12T00:00:40;6.90;;;4.80;;
8113;SDS011;4099;52.684;9.918;2023-04-12T00:05:43;5.97;;;4.07;;
8113;SDS011;4099;52.684;9.918;2023-04-12T00:10:48;6.97;;;5.03;;
8113;SDS011;4099;52.684;9.918;2023-04-12T00:15:50;7.77;;;4.40;;
8113;SDS011;4099;52.684;9.918;2023-04-12T00:20:52;8.17;;;4.93;;
8113;SDS011;4099;52.684;9.918;2023-04-12T00:25:56;6.77;;;4.93;;
8113;SDS011;4099;52.684;9.918;2023-04-12T00:30:58;6.37;;;5.07;;
8113;SDS011;4099;52.684;9.918;2023-04-12T00:36:00;9.93;;;5.50;;
8113;SDS011;4099;52.684;9.918;2023-04-12T00:41:03;9.50;;;5.30;;
8113;SDS011;4099;52.684;9.918;2023-04-12T00:46:07;7.70;;;4.80;;
8113;SDS011;4099;52.684;9.918;2023-04-12T00:51:08;7.40;;;4.83;;
8113;SDS011;4099;52.684;9.918;2023-04-12T00:56:12;8.67;;;5.07;;
8113;SDS011;4099;52.684;9.918;2023-04-12T01:01:14;6.50;;;4.90;;
8113;SDS011;4099;52.684;9.918;2023-04-12T01:06:20;7.93;;;4.80;;
8113;SDS011;4099;52.684;9.918;2023-04-12T01:11:35;8.43;;;4.63;;
8113;SDS011;4099;52.684;9.918;2023-04-12T01:16:40;6.07;;;4.03;;
8113;SDS011;4099;52.684;9.918;2023-04-12T01:21:50;7.60;;;4.43;;
8113;SDS011;4099;52.684;9.918;2023-04-12T01:27:03;12.53;;;6.47;;
8113;SDS011;4099;52.684;9.918;2023-04-12T01:32:16;10.30;;;5.97;;
8113;SDS011;4099;52.684;9.918;2023-04-12T01:37:19;8.17;;;4.20;;
8113;SDS011;4099;52.684;9.918;2023-04-12T01:42:22;5.40;;;4.03;;
8113;SDS011;4099;52.684;9.918;2023-04-12T01:47:25;8.20;;;4.23;;
8113;SDS011;4099;52.684;9.918;2023-04-12T01:52:29;4.07;;;3.27;;
8113;SDS011;4099;52.684;9.918;2023-04-12T01:57:34;11.27;;;4.40;;
8113;SDS011;4099;52.684;9.918;2023-04-12T02:02:40;7.93;;;4.73;;
8113;SDS011;4099;52.684;9.918;2023-04-12T02:07:41;8.33;;;4.60;;
8113;SDS011;4099;52.684;9.918;2023-04-12T02:12:44;7.97;;;4.00;;
8113;SDS011;4099;52.684;9.918;2023-04-12T02:17:47;6.63;;;3.97;;
8113;SDS011;4099;52.684;9.918;2023-04-12T02:22:53;5.70;;;4.10;;
8113;SDS011;4099;52.684;9.918;2023-04-12T02:27:54;6.30;;;4.07;;
8113;SDS011;4099;52.684;9.918;2023-04-12T02:32:58;7.53;;;3.90;;
8113;SDS011;4099;52.684;9.918;2023-04-12T02:38:05;6.80;;;3.80;;
8113;SDS011;4099;52.684;9.918;2023-04-12T02:43:10;6.53;;;3.53;;
8113;SDS011;4099;52.684;9.918;2023-04-12T02:48:17;7.30;;;3.93;;
8113;SDS011;4099;52.684;9.918;2023-04-12T02:53:20;4.40;;;3.40;;
8113;SDS011;4099;52.684;9.918;2023-04-12T02:58:35;5.57;;;3.47;;
8113;SDS011;4099;52.684;9.918;2023-04-12T03:03:39;4.77;;;3.40;;
8113;SDS011;4099;52.684;9.918;2023-04-12T03:09:00;5.63;;;3.10;;
8113;SDS011;4099;52.684;9.918;2023-04-12T03:14:02;7.40;;;3.50;;
8113;SDS011;4099;52.684;9.918;2023-04-12T03:19:07;5.00;;;3.40;;
8113;SDS011;4099;52.684;9.918;2023-04-12T03:24:09;6.97;;;3.37;;
8113;SDS011;4099;52.684;9.918;2023-04-12T03:29:12;5.83;;;3.70;;
8113;SDS011;4099;52.684;9.918;2023-04-12T03:34:17;9.97;;;3.50;;
8113;SDS011;4099;52.684;9.918;2023-04-12T03:39:23;6.03;;;3.07;;
8113;SDS011;4099;52.684;9.918;2023-04-12T03:44:27;6.77;;;3.30;;
8113;SDS011;4099;52.684;9.918;2023-04-12T03:49:32;5.00;;;3.30;;
8113;SDS011;4099;52.684;9.918;2023-04-12T03:54:36;6.53;;;4.07;;
8113;SDS011;4099;52.684;9.918;2023-04-12T03:59:41;6.87;;;3.53;;
8113;SDS011;4099;52.684;9.918;2023-04-12T04:04:45;7.80;;;4.00;;
8113;SDS011;4099;52.684;9.918;2023-04-12T04:09:54;6.53;;;3.33;;
8113;SDS011;4099;52.684;9.918;2023-04-12T04:14:59;8.70;;;3.93;;
8113;SDS011;4099;52.684;9.918;2023-04-12T04:20:06;5.57;;;3.63;;
8113;SDS011;4099;52.684;9.918;2023-04-12T04:25:13;8.07;;;3.57;;
8113;SDS011;4099;52.684;9.918;2023-04-12T04:30:17;6.80;;;3.40;;
8113;SDS011;4099;52.684;9.918;2023-04-12T04:35:23;4.00;;;2.90;;
8113;SDS011;4099;52.684;9.918;2023-04-12T04:40:44;6.77;;;3.10;;
8113;SDS011;4099;52.684;9.918;2023-04-12T04:45:50;6.03;;;3.90;;
8113;SDS011;4099;52.684;9.918;2023-04-12T04:50:56;7.00;;;3.47;;
8113;SDS011;4099;52.684;9.918;2023-04-12T04:55:58;10.60;;;4.37;;
8113;SDS011;4099;52.684;9.918;2023-04-12T05:01:05;5.57;;;3.73;;
8113;SDS011;4099;52.684;9.918;2023-04-12T05:06:09;7.33;;;4.40;;
8113;SDS011;4099;52.684;9.918;2023-04-12T05:11:12;6.73;;;3.60;;
8113;SDS011;4099;52.684;9.918;2023-04-12T05:16:14;4.90;;;3.27;;
8113;SDS011;4099;52.684;9.918;2023-04-12T05:21:19;5.40;;;3.20;;
8113;SDS011;4099;52.684;9.918;2023-04-12T05:26:21;6.43;;;4.73;;
8113;SDS011;4099;52.684;9.918;2023-04-12T05:31:25;6.23;;;4.27;;
8113;SDS011;4099;52.684;9.918;2023-04-12T05:36:28;7.33;;;4.30;;
8113;SDS011;4099;52.684;9.918;2023-04-12T05:41:31;4.27;;;3.87;;
8113;SDS011;4099;52.684;9.918;2023-04-12T05:46:33;6.50;;;4.00;;
8113;SDS011;4099;52.684;9.918;2023-04-12T05:51:37;7.93;;;4.20;;
8113;SDS011;4099;52.684;9.918;2023-04-12T05:56:38;5.63;;;4.10;;
8113;SDS011;4099;52.684;9.918;2023-04-12T06:01:41;7.77;;;5.33;;
8113;SDS011;4099;52.684;9.918;2023-04-12T06:06:45;4.47;;;3.63;;
8113;SDS011;4099;52.684;9.918;2023-04-12T06:11:48;5.37;;;3.77;;
8113;SDS011;4099;52.684;9.918;2023-04-12T06:16:51;7.47;;;3.93;;
8113;SDS011;4099;52.684;9.918;2023-04-12T06:21:54;6.10;;;4.03;;
8113;SDS011;4099;52.684;9.918;2023-04-12T06:26:57;8.03;;;3.60;;
8113;SDS011;4099;52.684;9.918;2023-04-12T06:31:59;4.93;;;3.47;;
8113;SDS011;4099;52.684;9.918;2023-04-12T06:37:02;5.63;;;3.00;;
8113;SDS011;4099;52.684;9.918;2023-04-12T06:42:04;4.07;;;2.93;;
8113;SDS011;4099;52.684;9.918;2023-04-12T06:47:08;4.10;;;2.97;;
8113;SDS011;4099;52.684;9.918;2023-04-12T06:52:11;7.23;;;2.73;;
8113;SDS011;4099;52.684;9.918;2023-04-12T06:57:12;4.90;;;2.93;;
8113;SDS011;4099;52.684;9.918;2023-04-12T07:02:14;3.93;;;2.80;;
8113;SDS011;4099;52.684;9.918;2023-04-12T07:07:17;6.00;;;3.07;;
8113;SDS011;4099;52.684;9.918;2023-04-12T07:12:20;5.77;;;2.90;;
8113;SDS011;4099;52.684;9.918;2023-04-12T07:17:22;6.60;;;2.70;;
8113;SDS011;4099;52.684;9.918;2023-04-12T07:22:27;9.20;;;2.73;;
8113;SDS011;4099;52.684;9.918;2023-04-12T07:27:28;5.37;;;2.33;;
8113;SDS011;4099;52.684;9.918;2023-04-12T07:32:30;7.03;;;2.43;;
8113;SDS011;4099;52.684;9.918;2023-04-12T07:37:34;4.43;;;2.60;;
8113;SDS011;4099;52.684;9.918;2023-04-12T07:42:35;12.77;;;3.17;;
8113;SDS011;4099;52.684;9.918;2023-04-12T07:47:37;4.97;;;2.20;;
8113;SDS011;4099;52.684;9.918;2023-04-12T07:52:40;6.07;;;2.37;;
8113;SDS011;4099;52.684;9.918;2023-04-12T07:57:42;4.97;;;2.40;;
8113;SDS011;4099;52.684;9.918;2023-04-12T08:02:44;3.77;;;2.50;;
8113;SDS011;4099;52.684;9.918;2023-04-12T08:07:47;4.67;;;2.63;;
8113;SDS011;4099;52.684;9.918;2023-04-12T08:12:49;4.33;;;2.20;;
8113;SDS011;4099;52.684;9.918;2023-04-12T08:17:50;3.93;;;2.30;;
8113;SDS011;4099;52.684;9.918;2023-04-12T08:22:53;5.00;;;2.60;;
8113;SDS011;4099;52.684;9.918;2023-04-12T08:27:55;6.30;;;2.20;;
8113;SDS011;4099;52.684;9.918;2023-04-12T08:32:57;6.07;;;2.73;;
8113;SDS011;4099;52.684;9.918;2023-04-12T08:38:00;18.40;;;10.50;;
8113;SDS011;4099;52.684;9.918;2023-04-12T08:43:06;6.87;;;4.90;;
8113;SDS011;4099;52.684;9.918;2023-04-12T08:48:08;2.87;;;2.40;;
8113;SDS011;4099;52.684;9.918;2023-04-12T08:53:12;5.33;;;2.53;;
8113;SDS011;4099;52.684;9.918;2023-04-12T08:58:14;4.57;;;2.50;;
8113;SDS011;4099;52.684;9.918;2023-04-12T09:03:16;3.07;;;2.50;;
8113;SDS011;4099;52.684;9.918;2023-04-12T09:08:19;6.20;;;2.70;;
8113;SDS011;4099;52.684;9.918;2023-04-12T09:13:29;3.90;;;2.60;;
8113;SDS011;4099;52.684;9.918;2023-04-12T09:18:32;5.70;;;2.83;;
8113;SDS011;4099;52.684;9.918;2023-04-12T09:24:00;9.30;;;2.90;;
8113;SDS011;4099;52.684;9.918;2023-04-12T09:29:03;6.90;;;2.90;;
8113;SDS011;4099;52.684;9.918;2023-04-12T09:34:05;4.93;;;2.67;;
8113;SDS011;4099;52.684;9.918;2023-04-12T09:39:09;4.07;;;2.90;;
8113;SDS011;4099;52.684;9.918;2023-04-12T09:44:23;5.63;;;4.83;;
8113;SDS011;4099;52.684;9.918;2023-04-12T09:49:35;5.43;;;3.97;;
8113;SDS011;4099;52.684;9.918;2023-04-12T09:54:41;4.03;;;2.93;;
8113;SDS011;4099;52.684;9.918;2023-04-12T09:59:44;5.07;;;2.60;;
8113;SDS011;4099;52.684;9.918;2023-04-12T10:04:49;2.73;;;2.43;;
8113;SDS011;4099;52.684;9.918;2023-04-12T10:09:53;5.67;;;2.87;;
8113;SDS011;4099;52.684;9.918;2023-04-12T10:14:59;7.17;;;4.00;;
8113;SDS011;4099;52.684;9.918;2023-04-12T10:20:06;5.07;;;3.30;;
8113;SDS011;4099;52.684;9.918;2023-04-12T10:25:11;4.97;;;3.77;;
8113;SDS011;4099;52.684;9.918;2023-04-12T10:30:17;7.67;;;3.80;;
8113;SDS011;4099;52.684;9.918;2023-04-12T10:35:21;6.73;;;4.30;;
8113;SDS011;4099;52.684;9.918;2023-04-12T10:40:24;7.03;;;4.67;;
8113;SDS011;4099;52.684;9.918;2023-04-12T10:45:35;5.13;;;3.87;;
8113;SDS011;4099;52.684;9.918;2023-04-12T10:50:38;3.83;;;2.90;;
8113;SDS011;4099;52.684;9.918;2023-04-12T10:55:42;7.03;;;4.50;;
8113;SDS011;4099;52.684;9.918;2023-04-12T11:01:08;4.10;;;3.70;;
8113;SDS011;4099;52.684;9.918;2023-04-12T11:06:10;5.43;;;3.20;;
8113;SDS011;4099;52.684;9.918;2023-04-12T11:11:49;6.40;;;3.77;;
8113;SDS011;4099;52.684;9.918;2023-04-12T11:22:21;4.10;;;2.70;;
8113;SDS011;4099;52.684;9.918;2023-04-12T11:27:26;3.97;;;3.10;;
8113;SDS011;4099;52.684;9.918;2023-04-12T11:32:30;3.03;;;2.60;;
8113;SDS011;4099;52.684;9.918;2023-04-12T11:37:34;3.83;;;3.00;;
8113;SDS011;4099;52.684;9.918;2023-04-12T11:42:37;5.60;;;3.47;;
8113;SDS011;4099;52.684;9.918;2023-04-12T11:47:40;3.97;;;3.33;;
8113;SDS011;4099;52.684;9.918;2023-04-12T11:52:43;5.43;;;3.47;;
8113;SDS011;4099;52.684;9.918;2023-04-12T11:57:46;3.67;;;3.07;;
8113;SDS011;4099;52.684;9.918;2023-04-12T12:02:53;5.77;;;3.30;;
8113;SDS011;4099;52.684;9.918;2023-04-12T12:07:54;7.90;;;4.60;;
8113;SDS011;4099;52.684;9.918;2023-04-12T12:12:58;3.60;;;3.23;;
8113;SDS011;4099;52.684;9.918;2023-04-12T12:18:00;6.57;;;4.30;;
8113;SDS011;4099;52.684;9.918;2023-04-12T12:23:02;7.00;;;4.30;;
8113;SDS011;4099;52.684;9.918;2023-04-12T12:28:05;3.87;;;3.30;;
8113;SDS011;4099;52.684;9.918;2023-04-12T12:33:17;7.00;;;4.30;;
8113;SDS011;4099;52.684;9.918;2023-04-12T12:38:20;6.47;;;4.63;;
8113;SDS011;4099;52.684;9.918;2023-04-12T12:43:23;4.23;;;3.33;;
8113;SDS011;4099;52.684;9.918;2023-04-12T12:48:26;7.40;;;4.00;;
8113;SDS011;4099;52.684;9.918;2023-04-12T12:53:27;6.07;;;3.90;;
8113;SDS011;4099;52.684;9.918;2023-04-12T12:58:31;5.70;;;3.43;;
8113;SDS011;4099;52.684;9.918;2023-04-12T13:03:32;4.00;;;3.60;;
8113;SDS011;4099;52.684;9.918;2023-04-12T13:08:34;5.10;;;3.50;;
8113;SDS011;4099;52.684;9.918;2023-04-12T13:13:37;4.37;;;3.60;;
8113;SDS011;4099;52.684;9.918;2023-04-12T13:18:39;4.97;;;3.77;;
8113;SDS011;4099;52.684;9.918;2023-04-12T13:23:41;6.67;;;3.50;;
8113;SDS011;4099;52.684;9.918;2023-04-12T13:28:45;4.37;;;3.60;;
8113;SDS011;4099;52.684;9.918;2023-04-12T13:33:46;5.63;;;4.30;;
8113;SDS011;4099;52.684;9.918;2023-04-12T13:38:48;4.57;;;3.90;;
8113;SDS011;4099;52.684;9.918;2023-04-12T13:43:52;5.00;;;4.10;;
8113;SDS011;4099;52.684;9.918;2023-04-12T13:48:53;3.87;;;3.33;;
8113;SDS011;4099;52.684;9.918;2023-04-12T13:53:55;6.20;;;3.37;;
8113;SDS011;4099;52.684;9.918;2023-04-12T13:58:58;3.50;;;3.20;;
8113;SDS011;4099;52.684;9.918;2023-04-12T14:04:01;3.60;;;3.30;;
8113;SDS011;4099;52.684;9.918;2023-04-12T14:09:03;4.27;;;3.37;;
8113;SDS011;4099;52.684;9.918;2023-04-12T14:14:07;3.87;;;3.00;;
8113;SDS011;4099;52.684;9.918;2023-04-12T14:19:08;4.07;;;3.10;;
8113;SDS011;4099;52.684;9.918;2023-04-12T14:24:10;4.23;;;3.10;;
8113;SDS011;4099;52.684;9.918;2023-04-12T14:29:14;3.70;;;3.00;;
8113;SDS011;4099;52.684;9.918;2023-04-12T14:34:16;3.50;;;3.20;;
8113;SDS011;4099;52.684;9.918;2023-04-12T14:39:17;4.20;;;2.90;;
8113;SDS011;4099;52.684;9.918;2023-04-12T14:44:21;3.37;;;3.07;;
8113;SDS011;4099;52.684;9.918;2023-04-12T14:49:22;3.80;;;2.80;;
8113;SDS011;4099;52.684;9.918;2023-04-12T14:54:24;2.97;;;2.77;;
8113;SDS011;4099;52.684;9.918;2023-04-12T14:59:27;3.03;;;2.83;;
8113;SDS011;4099;52.684;9.918;2023-04-12T15:04:29;3.93;;;3.03;;
8113;SDS011;4099;52.684;9.918;2023-04-12T15:09:31;4.20;;;2.97;;
8113;SDS011;4099;52.684;9.918;2023-04-12T15:14:34;5.27;;;3.27;;
8113;SDS011;4099;52.684;9.918;2023-04-12T15:19:36;3.57;;;2.60;;
8113;SDS011;4099;52.684;9.918;2023-04-12T15:24:37;4.83;;;2.80;;
8113;SDS011;4099;52.684;9.918;2023-04-12T15:29:40;2.83;;;2.53;;
8113;SDS011;4099;52.684;9.918;2023-04-12T15:34:42;3.47;;;2.77;;
8113;SDS011;4099;52.684;9.918;2023-04-12T15:39:44;4.60;;;2.80;;
8113;SDS011;4099;52.684;9.918;2023-04-12T15:44:47;3.13;;;2.83;;
8113;SDS011;4099;52.684;9.918;2023-04-12T15:49:49;3.87;;;3.00;;
8113;SDS011;4099;52.684;9.918;2023-04-12T15:54:53;5.37;;;3.23;;
8113;SDS011;4099;52.684;9.918;2023-04-12T15:59:57;5.30;;;3.33;;
8113;SDS011;4099;52.684;9.918;2023-04-12T16:05:01;5.57;;;3.60;;
8113;SDS011;4099;52.684;9.918;2023-04-12T16:10:03;4.50;;;3.80;;
8113;SDS011;4099;52.684;9.918;2023-04-12T16:15:09;6.37;;;4.17;;
8113;SDS011;4099;52.684;9.918;2023-04-12T16:20:11;12.90;;;5.77;;
8113;SDS011;4099;52.684;9.918;2023-04-12T16:25:16;4.90;;;3.70;;
8113;SDS011;4099;52.684;9.918;2023-04-12T16:30:19;8.50;;;4.67;;
8113;SDS011;4099;52.684;9.918;2023-04-12T16:35:21;8.00;;;5.20;;
8113;SDS011;4099;52.684;9.918;2023-04-12T16:40:23;4.30;;;3.60;;
8113;SDS011;4099;52.684;9.918;2023-04-12T16:45:27;3.43;;;2.97;;
8113;SDS011;4099;52.684;9.918;2023-04-12T16:50:28;3.43;;;3.13;;
8113;SDS011;4099;52.684;9.918;2023-04-12T16:55:31;3.53;;;3.23;;
8113;SDS011;4099;52.684;9.918;2023-04-12T17:00:34;3.60;;;3.30;;
8113;SDS011;4099;52.684;9.918;2023-04-12T17:05:36;4.03;;;3.50;;
8113;SDS011;4099;52.684;9.918;2023-04-12T17:10:39;3.73;;;3.40;;
8113;SDS011;4099;52.684;9.918;2023-04-12T17:15:42;6.17;;;5.53;;
8113;SDS011;4099;52.684;9.918;2023-04-12T17:20:47;5.00;;;4.27;;
8113;SDS011;4099;52.684;9.918;2023-04-12T17:25:48;4.63;;;4.23;;
8113;SDS011;4099;52.684;9.918;2023-04-12T17:30:52;5.47;;;4.67;;
8113;SDS011;4099;52.684;9.918;2023-04-12T17:35:56;5.63;;;4.73;;
8113;SDS011;4099;52.684;9.918;2023-04-12T17:40:58;5.77;;;4.17;;
8113;SDS011;4099;52.684;9.918;2023-04-12T17:46:01;4.73;;;4.20;;
8113;SDS011;4099;52.684;9.918;2023-04-12T17:51:03;5.20;;;4.20;;
8113;SDS011;4099;52.684;9.918;2023-04-12T17:56:08;4.20;;;3.80;;
8113;SDS011;4099;52.684;9.918;2023-04-12T18:01:11;4.57;;;4.17;;
8113;SDS011;4099;52.684;9.918;2023-04-12T18:06:13;4.83;;;4.33;;
8113;SDS011;4099;52.684;9.918;2023-04-12T18:11:17;6.20;;;5.43;;
8113;SDS011;4099;52.684;9.918;2023-04-12T18:16:20;7.87;;;6.37;;
8113;SDS011;4099;52.684;9.918;2023-04-12T18:21:22;8.53;;;6.90;;
8113;SDS011;4099;52.684;9.918;2023-04-12T18:26:25;8.00;;;7.03;;
8113;SDS011;4099;52.684;9.918;2023-04-12T18:31:28;7.60;;;6.80;;
8113;SDS011;4099;52.684;9.918;2023-04-12T18:36:30;9.37;;;8.20;;
8113;SDS011;4099;52.684;9.918;2023-04-12T18:41:32;8.83;;;7.93;;
8113;SDS011;4099;52.684;9.918;2023-04-12T18:46:36;5.70;;;4.70;;
8113;SDS011;4099;52.684;9.918;2023-04-12T18:51:38;5.27;;;4.27;;
8113;SDS011;4099;52.684;9.918;2023-04-12T18:56:44;7.17;;;5.27;;
8113;SDS011;4099;52.684;9.918;2023-04-12T19:01:56;7.03;;;6.10;;
8113;SDS011;4099;52.684;9.918;2023-04-12T19:07:01;7.90;;;6.37;;
8113;SDS011;4099;52.684;9.918;2023-04-12T19:12:04;8.90;;;6.27;;
8113;SDS011;4099;52.684;9.918;2023-04-12T19:17:08;8.47;;;6.27;;
8113;SDS011;4099;52.684;9.918;2023-04-12T19:22:31;11.67;;;7.10;;
8113;SDS011;4099;52.684;9.918;2023-04-12T19:27:44;8.87;;;6.63;;
8113;SDS011;4099;52.684;9.918;2023-04-12T19:32:54;9.63;;;7.70;;
8113;SDS011;4099;52.684;9.918;2023-04-12T19:37:57;9.63;;;6.70;;
8113;SDS011;4099;52.684;9.918;2023-04-12T19:43:01;9.57;;;6.50;;
8113;SDS011;4099;52.684;9.918;2023-04-12T19:48:12;9.70;;;6.10;;
8113;SDS011;4099;52.684;9.918;2023-04-12T19:53:20;10.20;;;7.20;;
8113;SDS011;4099;52.684;9.918;2023-04-12T19:58:23;10.80;;;7.70;;
8113;SDS011;4099;52.684;9.918;2023-04-12T20:03:41;12.87;;;8.50;;
8113;SDS011;4099;52.684;9.918;2023-04-12T20:08:47;13.60;;;8.97;;
8113;SDS011;4099;52.684;9.918;2023-04-12T20:13:52;12.97;;;8.80;;
8113;SDS011;4099;52.684;9.918;2023-04-12T20:24:30;14.30;;;9.90;;
8113;SDS011;4099;52.684;9.918;2023-04-12T20:29:41;11.23;;;7.27;;
8113;SDS011;4099;52.684;9.918;2023-04-12T20:34:56;8.33;;;6.90;;
8113;SDS011;4099;52.684;9.918;2023-04-12T20:40:03;8.33;;;6.60;;
8113;SDS011;4099;52.684;9.918;2023-04-12T20:45:21;6.30;;;5.27;;
8113;SDS011;4099;52.684;9.918;2023-04-12T20:50:49;10.47;;;6.67;;
8113;SDS011;4099;52.684;9.918;2023-04-12T20:55:57;7.67;;;6.10;;
8113;SDS011;4099;52.684;9.918;2023-04-12T21:01:16;8.67;;;5.97;;
8113;SDS011;4099;52.684;9.918;2023-04-12T21:06:29;7.83;;;5.27;;
8113;SDS011;4099;52.684;9.918;2023-04-12T21:11:40;9.40;;;5.20;;
8113;SDS011;4099;52.684;9.918;2023-04-12T21:16:48;5.97;;;5.37;;
8113;SDS011;4099;52.684;9.918;2023-04-12T21:22:01;12.60;;;7.53;;
8113;SDS011;4099;52.684;9.918;2023-04-12T21:27:08;11.30;;;7.87;;
8113;SDS011;4099;52.684;9.918;2023-04-12T21:32:15;7.83;;;5.70;;
8113;SDS011;4099;52.684;9.918;2023-04-12T21:37:28;7.93;;;6.00;;
8113;SDS011;4099;52.684;9.918;2023-04-12T21:42:38;9.40;;;5.80;;
8113;SDS011;4099;52.684;9.918;2023-04-12T21:47:55;7.47;;;5.90;;
8113;SDS011;4099;52.684;9.918;2023-04-12T21:53:00;6.17;;;4.80;;
8113;SDS011;4099;52.684;9.918;2023-04-12T21:58:09;8.13;;;4.77;;
8113;SDS011;4099;52.684;9.918;2023-04-12T22:03:30;7.50;;;4.73;;
8113;SDS011;4099;52.684;9.918;2023-04-12T22:14:07;5.63;;;4.07;;
8113;SDS011;4099;52.684;9.918;2023-04-12T22:19:18;6.33;;;4.40;;
8113;SDS011;4099;52.684;9.918;2023-04-12T22:24:41;6.27;;;4.30;;
8113;SDS011;4099;52.684;9.918;2023-04-12T22:29:47;9.53;;;4.80;;
8113;SDS011;4099;52.684;9.918;2023-04-12T22:34:50;6.47;;;5.67;;
8113;SDS011;4099;52.684;9.918;2023-04-12T22:40:08;10.50;;;6.90;;
8113;SDS011;4099;52.684;9.918;2023-04-12T22:45:16;9.97;;;6.23;;
8113;SDS011;4099;52.684;9.918;2023-04-12T22:50:30;7.53;;;5.93;;
8113;SDS011;4099;52.684;9.918;2023-04-12T22:55:39;8.47;;;6.53;;
8113;SDS011;4099;52.684;9.918;2023-04-12T23:00:42;8.53;;;6.33;;
8113;SDS011;4099;52.684;9.918;2023-04-12T23:05:49;8.97;;;6.77;;
8113;SDS011;4099;52.684;9.918;2023-04-12T23:10:55;9.17;;;7.13;;
8113;SDS011;4099;52.684;9.918;2023-04-12T23:16:06;11.07;;;7.50;;
8113;SDS011;4099;52.684;9.918;2023-04-12T23:21:13;11.33;;;7.80;;
8113;SDS011;4099;52.684;9.918;2023-04-12T23:26:34;12.50;;;8.37;;
8113;SDS011;4099;52.684;9.918;2023-04-12T23:31:36;12.23;;;8.43;;
8113;SDS011;4099;52.684;9.918;2023-04-12T23:37:14;14.57;;;9.07;;
8113;SDS011;4099;52.684;9.918;2023-04-12T23:42:33;9.87;;;7.83;;
8113;SDS011;4099;52.684;9.918;2023-04-12T23:47:36;9.70;;;7.23;;
8113;SDS011;4099;52.684;9.918;2023-04-12T23:52:44;11.20;;;7.07;;
8113;SDS011;4099;52.684;9.918;2023-04-12T23:57:53;8.33;;;5.93;;
